Time;durP1;ratioP1;P1;durP2;ratioP2;P2;SDS_P1;SDS_P2;PMS_P1;PMS_P2;Temp;Humidity;BMP_temperature;BMP_pressure;BME280_temperature;BME280_humidity;BME280_pressure;Samples;Min_cycle;Max_cycle;Signal;HPM_P1;HPM_P2
2023/01/10 00:00:05;;;;;;;0.40;0.40;;;;;;;5.55;83.03;100661.31;5146378;28;20070;-81
2023/01/10 00:02:36;;;;;;;1.40;1.30;;;;;;;5.60;83.03;100667.34;5151874;28;20023;-81
2023/01/10 00:05:07;;;;;;;0.40;0.40;;;;;;;5.51;83.06;100683.03;5135728;28;20050;-81
2023/01/10 00:07:37;;;;;;;0.90;0.85;;;;;;;5.57;83.21;100679.53;5150249;28;20054;-81
2023/01/10 00:10:08;;;;;;;0.60;0.52;;;;;;;5.58;82.81;100694.25;5155323;28;20553;-80
2023/01/10 00:15:37;;;;;;;0.30;0.30;;;;;;;5.56;82.80;100696.88;5110579;28;20047;-81
2023/01/10 00:18:08;;;;;;;0.30;0.30;;;;;;;5.57;82.92;100715.97;5123493;28;20034;-82
2023/01/10 00:20:38;;;;;;;0.30;0.30;;;;;;;5.58;82.61;100718.53;5129955;28;20552;-81
2023/01/10 00:23:09;;;;;;;0.52;0.52;;;;;;;5.65;81.96;100728.06;5135921;28;20030;-81
2023/01/10 00:25:41;;;;;;;0.85;0.65;;;;;;;5.59;82.57;100722.03;5119649;28;20170;-82
2023/01/10 00:30:53;;;;;;;0.40;0.40;;;;;;;5.56;82.35;100730.72;5137433;28;20035;-82
2023/01/10 00:33:24;;;;;;;0.52;0.52;;;;;;;5.62;82.37;100737.63;5148536;28;20711;-82
2023/01/10 00:35:57;;;;;;;0.70;0.70;;;;;;;5.64;81.81;100743.69;5155604;28;20125;-80
2023/01/10 00:38:29;;;;;;;0.40;0.40;;;;;;;5.61;82.28;100747.16;5137219;28;20140;-80
2023/01/10 00:41:01;;;;;;;0.30;0.30;;;;;;;5.59;82.33;100743.69;5151471;28;20039;-81
2023/01/10 00:46:20;;;;;;;0.40;0.40;;;;;;;5.63;81.69;100761.06;5136416;28;20078;-81
2023/01/10 00:48:51;;;;;;;0.30;0.30;;;;;;;5.60;81.95;100762.81;5138041;28;20054;-81
2023/01/10 00:51:22;;;;;;;0.50;0.50;;;;;;;5.62;81.96;100769.72;5147241;28;20035;-82
2023/01/10 00:53:52;;;;;;;1.00;1.00;;;;;;;5.75;81.42;100774.84;5136034;28;20062;-81
2023/01/10 00:56:23;;;;;;;0.85;0.68;;;;;;;5.65;81.96;100779.25;5139287;28;20039;-80
2023/01/10 00:58:53;;;;;;;0.35;0.35;;;;;;;5.66;81.44;100786.19;5141409;28;20035;-81
2023/01/10 01:01:24;;;;;;;7.75;1.40;;;;;;;5.63;81.78;100787.06;5126410;28;20066;-81
2023/01/10 01:03:54;;;;;;;0.30;0.30;;;;;;;5.66;81.39;100792.25;5163549;28;20030;-84
2023/01/10 01:06:25;;;;;;;18.83;1.05;;;;;;;5.68;81.43;100797.47;5132511;28;20039;-82
2023/01/10 01:08:55;;;;;;;0.80;0.80;;;;;;;5.68;81.16;100805.28;5136824;28;20026;-81
2023/01/10 01:11:26;;;;;;;0.30;0.30;;;;;;;5.71;81.07;100814.81;5134980;28;20128;-81
2023/01/10 01:13:56;;;;;;;1.23;0.65;;;;;;;5.64;80.92;100814.84;5155445;28;20087;-81
2023/01/10 01:16:27;;;;;;;0.60;0.60;;;;;;;5.71;80.94;100820.00;5121150;28;20043;-83
2023/01/10 01:18:57;;;;;;;2.17;1.38;;;;;;;5.68;80.30;100826.09;5157553;28;20043;-83
2023/01/10 01:21:28;;;;;;;0.30;0.30;;;;;;;5.64;80.49;100835.66;5119679;28;20074;-81
2023/01/10 01:23:58;;;;;;;0.40;0.40;;;;;;;5.65;80.62;100839.13;5154323;28;20034;-81
2023/01/10 01:26:29;;;;;;;0.32;0.32;;;;;;;5.70;80.51;100833.91;5119485;28;20425;-82
2023/01/10 01:28:59;;;;;;;0.93;0.93;;;;;;;5.62;80.21;100853.03;5134459;28;20061;-81
2023/01/10 01:31:30;;;;;;;3.30;1.65;;;;;;;5.73;80.13;100858.19;5122191;28;20036;-82
2023/01/10 01:34:00;;;;;;;0.40;0.40;;;;;;;5.68;79.94;100860.81;5127527;28;20030;-82
2023/01/10 01:36:31;;;;;;;0.50;0.50;;;;;;;5.70;79.89;100866.03;5130019;28;20051;-82
2023/01/10 01:39:02;;;;;;;1.05;1.05;;;;;;;5.68;80.34;100871.22;5116772;28;20043;-81
2023/01/10 01:44:23;;;;;;;0.30;0.30;;;;;;;5.66;80.38;100885.13;5146724;28;20033;-80
2023/01/10 01:47:17;;;;;;;0.63;0.63;;;;;;;5.66;80.11;100880.75;5125417;28;20127;-81
2023/01/10 01:49:47;;;;;;;0.50;0.50;;;;;;;5.63;80.45;100882.50;5138117;28;20822;-80
2023/01/10 01:52:25;;;;;;;4.38;1.85;;;;;;;5.63;80.23;100888.59;5148834;28;20050;-80
2023/01/10 01:54:58;;;;;;;0.82;0.82;;;;;;;5.62;79.73;100889.47;5135472;28;20029;-82
2023/01/10 01:57:31;;;;;;;0.95;0.95;;;;;;;5.58;79.67;100900.75;5139690;28;20046;-81
2023/01/10 02:00:04;;;;;;;0.82;0.82;;;;;;;5.50;80.29;100894.69;5117846;28;20018;-81
2023/01/10 02:02:41;;;;;;;0.30;0.30;;;;;;;5.53;79.95;100889.50;5136131;28;20035;-80
2023/01/10 02:05:15;;;;;;;0.30;0.30;;;;;;;5.53;80.00;100894.72;5131009;28;20035;-81
2023/01/10 02:07:49;;;;;;;0.20;0.20;;;;;;;5.47;79.99;100905.16;5136510;28;20135;-81
2023/01/10 02:10:38;;;;;;;0.30;0.30;;;;;;;5.50;80.08;100906.00;5121009;28;20129;-82
2023/01/10 02:13:13;;;;;;;0.30;0.30;;;;;;;5.46;79.32;100900.81;5151322;28;20042;-81
2023/01/10 02:15:43;;;;;;;2.10;1.60;;;;;;;5.36;79.21;100908.63;5119657;28;20512;-81
2023/01/10 02:18:14;;;;;;;0.57;0.57;;;;;;;5.41;79.64;100910.38;5128880;28;20121;-81
2023/01/10 02:20:58;;;;;;;0.30;0.30;;;;;;;5.38;79.33;100910.38;5152582;28;20039;-81
2023/01/10 02:23:37;;;;;;;0.50;0.50;;;;;;;5.41;78.97;100920.78;5133277;28;20117;-82
2023/01/10 02:26:23;;;;;;;0.60;0.60;;;;;;;5.39;79.35;100925.13;5120017;28;20095;-81
2023/01/10 02:29:19;;;;;;;0.20;0.20;;;;;;;5.37;79.40;100925.13;5133609;28;20097;-81
2023/01/10 02:31:58;;;;;;;0.30;0.30;;;;;;;5.38;79.17;100928.59;5135980;28;20040;-80
2023/01/10 02:34:50;;;;;;;0.45;0.45;;;;;;;5.30;79.53;100924.28;5141037;28;20035;-80
2023/01/10 02:37:31;;;;;;;1.40;1.30;;;;;;;5.30;79.38;100934.69;5134034;28;20528;-80
2023/01/10 02:40:04;;;;;;;1.30;0.95;;;;;;;5.33;79.38;100945.06;5121488;28;20049;-80
2023/01/10 02:43:13;;;;;;;1.55;1.05;;;;;;;5.47;78.56;100937.22;5121689;28;20047;-80
2023/01/10 02:45:57;;;;;;;0.30;0.30;;;;;;;5.40;78.48;100939.88;5092228;28;20057;-81
2023/01/10 02:48:27;;;;;;;0.40;0.40;;;;;;;5.29;78.46;100932.94;5138981;28;20027;-80
2023/01/10 02:51:08;;;;;;;1.98;1.42;;;;;;;5.25;78.92;100928.59;5135256;28;20054;-81
2023/01/10 02:53:45;;;;;;;0.85;0.85;;;;;;;5.24;78.98;100933.81;5121015;28;20050;-80
2023/01/10 02:56:32;;;;;;;0.30;0.30;;;;;;;5.21;78.58;100929.47;5135271;28;20043;-81
2023/01/10 02:59:06;;;;;;;0.30;0.30;;;;;;;5.22;78.45;100940.75;5120150;28;20059;-81
2023/01/10 03:01:45;;;;;;;1.70;1.60;;;;;;;5.24;78.30;100939.91;5136261;28;20062;-81
2023/01/10 03:04:23;;;;;;;0.95;0.95;;;;;;;5.21;78.64;100945.09;5153928;28;20035;-82
2023/01/10 03:07:01;;;;;;;0.82;0.82;;;;;;;5.20;78.82;100943.34;5122012;28;20055;-81
2023/01/10 03:09:38;;;;;;;0.40;0.40;;;;;;;5.23;78.75;100951.16;5151049;28;20031;-83
2023/01/10 03:12:23;;;;;;;2.90;1.40;;;;;;;5.22;78.58;100959.84;5147968;28;20039;-81
2023/01/10 03:14:57;;;;;;;0.30;0.30;;;;;;;5.17;78.20;100953.75;5130272;28;20549;-80
2023/01/10 03:17:29;;;;;;;0.40;0.40;;;;;;;5.16;78.32;100957.25;5131921;28;20050;-81
2023/01/10 03:20:04;;;;;;;0.47;0.47;;;;;;;5.14;78.38;100961.59;5131115;28;20097;-82
2023/01/10 03:22:38;;;;;;;0.50;0.50;;;;;;;5.13;78.02;100959.84;5135891;28;20121;-81
2023/01/10 03:25:13;;;;;;;0.57;0.55;;;;;;;5.10;78.06;100962.44;5132930;28;20555;-81
2023/01/10 03:27:54;;;;;;;0.30;0.30;;;;;;;5.17;77.96;100959.84;5150985;28;20062;-81
2023/01/10 03:30:39;;;;;;;0.50;0.50;;;;;;;5.25;78.28;100962.41;5138655;28;20272;-81
2023/01/10 03:33:11;;;;;;;0.30;0.30;;;;;;;5.23;78.21;100974.59;5151283;28;20122;-81
2023/01/10 03:35:51;;;;;;;0.40;0.40;;;;;;;5.20;77.99;100974.56;5120544;28;20118;-82
2023/01/10 03:38:37;;;;;;;0.30;0.30;;;;;;;5.16;77.93;100983.25;5135189;28;20039;-82
2023/01/10 03:41:46;;;;;;;0.40;0.40;;;;;;;5.26;78.18;100981.50;5124611;28;20072;-82
2023/01/10 03:44:42;;;;;;;0.32;0.32;;;;;;;5.26;77.81;100995.38;5111603;28;20043;-82
2023/01/10 03:47:39;;;;;;;1.10;1.10;;;;;;;5.21;77.67;100997.13;5152870;28;20043;-82
2023/01/10 03:50:17;;;;;;;0.65;0.60;;;;;;;5.14;78.18;101005.81;5131644;28;20034;-82
2023/01/10 03:52:48;;;;;;;0.30;0.30;;;;;;;5.23;78.25;101011.00;5158732;28;20074;-81
2023/01/10 03:55:25;;;;;;;0.98;0.98;;;;;;;5.14;78.29;101011.00;5177734;28;20035;-81
2023/01/10 03:57:56;;;;;;;0.40;0.40;;;;;;;5.18;77.55;101024.00;5173843;28;20257;-81
2023/01/10 04:00:27;;;;;;;1.58;1.48;;;;;;;5.08;78.33;101024.00;5156707;28;20035;-81
2023/01/10 04:02:58;;;;;;;0.60;0.60;;;;;;;5.02;78.47;101030.94;5157610;28;20039;-81
2023/01/10 04:05:28;;;;;;;1.35;0.77;;;;;;;5.02;78.58;101038.72;5156949;28;20536;-81
2023/01/10 04:07:59;;;;;;;0.40;0.40;;;;;;;5.07;78.82;101040.47;5142715;28;20058;-81
2023/01/10 04:10:29;;;;;;;0.45;0.45;;;;;;;5.03;79.38;101035.25;5130144;28;20089;-80
2023/01/10 04:13:01;;;;;;;1.63;1.52;;;;;;;5.04;79.07;101042.22;5158337;28;20042;-80
2023/01/10 04:15:31;;;;;;;0.20;0.20;;;;;;;5.11;79.41;101043.09;5149055;28;20039;-80
2023/01/10 04:18:02;;;;;;;1.77;1.67;;;;;;;5.12;79.22;101049.16;5150638;28;20038;-80
2023/01/10 04:20:32;;;;;;;0.68;0.68;;;;;;;5.07;79.45;101048.28;5140391;28;20043;-81
2023/01/10 04:23:03;;;;;;;0.30;0.30;;;;;;;5.09;78.44;101050.00;5145443;28;20019;-80
2023/01/10 04:25:33;;;;;;;0.30;0.30;;;;;;;5.09;78.75;101054.34;5134357;28;20046;-81
2023/01/10 04:28:04;;;;;;;0.30;0.30;;;;;;;5.13;79.52;101051.75;5166101;28;20039;-80
2023/01/10 04:30:34;;;;;;;0.40;0.40;;;;;;;5.10;79.54;101056.06;5146209;28;20046;-80
2023/01/10 04:33:06;;;;;;;0.40;0.40;;;;;;;5.14;79.05;101047.41;5128397;28;20496;-80
2023/01/10 04:35:36;;;;;;;0.73;0.73;;;;;;;5.12;79.20;101049.16;5131378;28;20039;-80
2023/01/10 04:38:07;;;;;;;0.30;0.30;;;;;;;5.15;78.84;101054.38;5152214;28;20042;-81
2023/01/10 04:40:37;;;;;;;1.23;0.85;;;;;;;5.18;79.22;101051.75;5135018;28;20106;-82
2023/01/10 04:43:08;;;;;;;0.30;0.30;;;;;;;5.16;78.89;101049.16;5141654;28;20058;-81
2023/01/10 04:45:38;;;;;;;0.40;0.40;;;;;;;5.12;79.35;101051.75;5129735;28;20035;-82
2023/01/10 04:48:09;;;;;;;0.35;0.35;;;;;;;5.08;79.07;101053.47;5135879;28;20081;-81
2023/01/10 04:50:39;;;;;;;0.40;0.40;;;;;;;5.12;79.16;101060.44;5151479;28;20048;-82
2023/01/10 04:53:10;;;;;;;0.65;0.65;;;;;;;5.10;79.09;101061.28;5149577;28;20038;-81
2023/01/10 04:55:40;;;;;;;2.00;0.85;;;;;;;5.10;78.81;101061.28;5152449;28;20102;-80
2023/01/10 04:58:11;;;;;;;0.50;0.50;;;;;;;5.10;79.00;101066.47;5131850;28;20122;-80
2023/01/10 05:00:42;;;;;;;0.52;0.52;;;;;;;5.08;79.04;101074.28;5153626;28;20302;-80
2023/01/10 05:03:12;;;;;;;0.75;0.75;;;;;;;5.06;78.76;101078.63;5121867;28;20089;-81
2023/01/10 05:05:43;;;;;;;0.20;0.20;;;;;;;5.06;79.17;101072.56;5151746;28;20051;-81
2023/01/10 05:08:13;;;;;;;1.23;1.23;;;;;;;5.10;78.77;101080.38;5149052;28;20027;-81
2023/01/10 05:10:44;;;;;;;6.53;2.42;;;;;;;5.16;78.17;101089.91;5124303;28;20034;-81
2023/01/10 05:13:14;;;;;;;0.65;0.65;;;;;;;5.15;78.51;101090.78;5154661;28;20181;-83
2023/01/10 05:15:45;;;;;;;0.30;0.30;;;;;;;5.15;77.94;101088.19;5136737;28;20625;-81
2023/01/10 05:18:16;;;;;;;0.40;0.40;;;;;;;5.23;77.72;101089.06;5141250;28;20038;-81
2023/01/10 05:20:46;;;;;;;6.63;4.13;;;;;;;5.16;78.16;101101.19;5127630;28;20434;-81
2023/01/10 05:23:17;;;;;;;0.40;0.40;;;;;;;5.18;77.59;101090.75;5136142;28;20030;-81
2023/01/10 05:25:47;;;;;;;0.50;0.50;;;;;;;5.16;77.75;101097.72;5155617;28;20049;-81
2023/01/10 05:28:18;;;;;;;0.57;0.57;;;;;;;5.10;78.14;101102.88;5138662;28;20391;-81
2023/01/10 05:30:49;;;;;;;0.30;0.30;;;;;;;5.06;77.92;101111.56;5146072;28;20114;-81
2023/01/10 05:33:19;;;;;;;0.38;0.38;;;;;;;4.99;78.22;101124.56;5132801;28;20129;-81
2023/01/10 05:35:49;;;;;;;1.45;1.35;;;;;;;5.13;77.52;101121.97;5138196;28;20031;-80
2023/01/10 05:38:20;;;;;;;0.47;0.47;;;;;;;5.03;77.96;101121.09;5138560;28;20041;-81
2023/01/10 05:40:55;;;;;;;2.33;1.42;;;;;;;5.11;78.26;101120.25;5121322;28;20058;-81
2023/01/10 05:43:26;;;;;;;1.65;1.23;;;;;;;5.03;77.53;101113.28;5157626;28;20023;-81
2023/01/10 05:45:57;;;;;;;14.55;1.70;;;;;;;5.02;77.98;101106.34;5142051;28;20091;-81
2023/01/10 05:48:27;;;;;;;2.40;0.88;;;;;;;5.04;78.55;101114.19;5135366;28;20111;-81
2023/01/10 05:50:58;;;;;;;0.70;0.70;;;;;;;4.88;78.42;101124.50;5120316;28;20093;-80
2023/01/10 05:53:28;;;;;;;0.70;0.70;;;;;;;4.93;78.20;101128.88;5140032;28;20302;-81
2023/01/10 05:56:00;;;;;;;4.05;2.00;;;;;;;4.86;78.70;101128.88;5138682;28;20046;-82
2023/01/10 05:58:31;;;;;;;1.58;0.90;;;;;;;4.92;78.77;101137.53;5137414;28;20050;-80
2023/01/10 06:01:01;;;;;;;0.30;0.30;;;;;;;4.94;78.42;101149.66;5137576;28;20742;-81
2023/01/10 06:03:32;;;;;;;5.72;2.28;;;;;;;4.87;78.63;101158.31;5139523;28;20034;-80
2023/01/10 06:06:03;;;;;;;0.30;0.30;;;;;;;4.91;79.04;101160.09;5139781;28;20034;-81
2023/01/10 06:08:35;;;;;;;0.93;0.93;;;;;;;4.92;78.33;101166.13;5136376;28;20114;-80
2023/01/10 06:11:06;;;;;;;0.82;0.82;;;;;;;4.89;78.85;101175.66;5149506;28;20073;-82
2023/01/10 06:13:37;;;;;;;0.30;0.30;;;;;;;4.99;78.75;101168.78;5135034;28;20027;-80
2023/01/10 06:16:07;;;;;;;0.30;0.30;;;;;;;4.96;78.26;101150.56;5153499;28;20117;-82
2023/01/10 06:18:38;;;;;;;0.30;0.30;;;;;;;5.03;78.55;101156.66;5157339;28;20041;-80
2023/01/10 06:21:08;;;;;;;0.30;0.30;;;;;;;4.92;79.17;101159.19;5159017;28;20109;-80
2023/01/10 06:23:39;;;;;;;3.20;2.42;;;;;;;4.97;78.79;101160.09;5136569;28;20031;-80
2023/01/10 06:26:09;;;;;;;3.53;1.83;;;;;;;4.96;78.90;101166.16;5124738;28;20363;-81
2023/01/10 06:28:40;;;;;;;0.57;0.57;;;;;;;4.90;78.81;101163.53;5153861;28;20033;-80
2023/01/10 06:31:10;;;;;;;0.38;0.38;;;;;;;4.90;78.52;101168.75;5144730;28;20546;-82
2023/01/10 06:33:42;;;;;;;0.30;0.30;;;;;;;4.96;79.25;101176.56;5139143;28;20027;-80
2023/01/10 06:36:13;;;;;;;1.58;1.48;;;;;;;4.89;79.04;101180.00;5156523;28;20090;-81
2023/01/10 06:38:43;;;;;;;0.30;0.30;;;;;;;4.91;78.51;101174.81;5135845;28;20031;-80
2023/01/10 06:41:16;;;;;;;0.88;0.88;;;;;;;4.80;79.38;101175.63;5145320;28;20653;-80
2023/01/10 06:43:48;;;;;;;0.47;0.47;;;;;;;4.77;79.83;101187.75;5132999;28;20042;-79
2023/01/10 06:46:19;;;;;;;0.40;0.40;;;;;;;4.79;79.29;101186.91;5152650;28;20286;-80
2023/01/10 06:48:49;;;;;;;5.15;2.55;;;;;;;4.75;79.02;101192.09;5131499;28;20031;-80
2023/01/10 06:51:20;;;;;;;0.30;0.30;;;;;;;4.76;78.86;101199.88;5153745;28;20181;-80
2023/01/10 06:53:50;;;;;;;0.50;0.50;;;;;;;4.70;79.39;101198.13;5136870;28;20039;-80
2023/01/10 06:56:21;;;;;;;1.73;1.63;;;;;;;4.72;79.45;101209.41;5118524;28;20062;-81
2023/01/10 06:58:51;;;;;;;0.50;0.50;;;;;;;4.65;79.69;101214.53;5136860;28;20030;-80
2023/01/10 07:01:22;;;;;;;1.65;1.13;;;;;;;4.68;79.11;101218.03;5148494;28;20145;-81
2023/01/10 07:03:52;;;;;;;0.77;0.60;;;;;;;4.68;78.86;101214.56;5159714;28;20032;-80
2023/01/10 07:06:23;;;;;;;0.70;0.70;;;;;;;4.72;78.99;101212.00;5123957;28;20038;-80
2023/01/10 07:08:54;;;;;;;0.70;0.70;;;;;;;4.68;79.58;101222.38;5138606;28;20211;-80
2023/01/10 07:11:25;;;;;;;0.20;0.20;;;;;;;4.66;79.78;101232.78;5152427;28;20085;-82
2023/01/10 07:13:55;;;;;;;0.40;0.40;;;;;;;4.76;79.19;101230.19;5161181;28;20023;-80
2023/01/10 07:16:26;;;;;;;2.83;0.98;;;;;;;4.71;79.61;101240.59;5127313;28;20205;-81
2023/01/10 07:18:58;;;;;;;2.45;1.80;;;;;;;4.82;78.30;101243.25;5163417;28;20035;-80
2023/01/10 07:21:29;;;;;;;1.25;1.25;;;;;;;4.69;78.98;101240.56;5165001;28;20043;-81
2023/01/10 07:23:59;;;;;;;0.40;0.40;;;;;;;4.66;79.01;101243.16;5169642;28;20038;-80
2023/01/10 07:26:30;;;;;;;0.38;0.38;;;;;;;4.62;79.27;101246.59;5150532;28;20077;-80
2023/01/10 07:29:01;;;;;;;0.60;0.60;;;;;;;4.66;78.81;101245.78;5148625;28;20133;-80
2023/01/10 07:31:31;;;;;;;0.38;0.38;;;;;;;4.63;79.29;101250.09;5160341;28;20047;-79
2023/01/10 07:34:02;;;;;;;1.35;0.73;;;;;;;4.69;78.91;101256.16;5143151;28;20082;-80
2023/01/10 07:36:34;;;;;;;0.70;0.70;;;;;;;4.72;78.98;101263.09;5143234;28;20043;-81
2023/01/10 07:39:05;;;;;;;0.60;0.60;;;;;;;4.65;79.84;101261.34;5138035;28;20407;-80
2023/01/10 07:41:35;;;;;;;0.50;0.50;;;;;;;4.63;79.81;101266.53;5143192;28;20039;-79
2023/01/10 07:44:06;;;;;;;0.57;0.57;;;;;;;4.55;78.77;101274.25;5149987;28;20450;-81
2023/01/10 07:46:36;;;;;;;0.98;0.98;;;;;;;4.54;79.14;101274.25;5150370;28;20070;-80
2023/01/10 07:49:07;;;;;;;1.55;1.35;;;;;;;4.55;79.45;101276.00;5148319;28;20038;-81
2023/01/10 07:51:38;;;;;;;0.75;0.68;;;;;;;4.62;79.41;101282.97;5139345;28;20101;-81
2023/01/10 07:54:08;;;;;;;35.80;2.25;;;;;;;4.56;79.78;101283.81;5132257;28;20054;-81
2023/01/10 07:56:38;;;;;;;1.20;1.20;;;;;;;4.52;79.84;101276.88;5149235;28;20098;-81
2023/01/10 07:59:09;;;;;;;3.70;1.13;;;;;;;4.54;79.90;101279.47;5149118;28;20038;-81
2023/01/10 08:01:39;;;;;;;8.45;1.52;;;;;;;4.55;80.00;101286.41;5150558;28;20038;-80
2023/01/10 08:04:10;;;;;;;0.30;0.30;;;;;;;4.51;79.58;101282.03;5167794;28;20033;-82
2023/01/10 08:06:40;;;;;;;0.43;0.43;;;;;;;4.51;80.18;101287.22;5148976;28;20038;-81
2023/01/10 08:09:11;;;;;;;2.42;1.33;;;;;;;4.47;80.07;101299.34;5144435;28;20038;-81
2023/01/10 08:11:42;;;;;;;1.15;1.15;;;;;;;4.54;80.11;101295.06;5155615;28;20034;-81
2023/01/10 08:14:12;;;;;;;1.08;1.08;;;;;;;4.51;80.00;101301.09;5162069;28;20047;-82
2023/01/10 08:16:43;;;;;;;0.68;0.68;;;;;;;4.50;79.74;101312.34;5170449;28;20023;-82
2023/01/10 08:19:15;;;;;;;0.35;0.35;;;;;;;4.47;80.38;101306.28;5160052;28;20027;-83
2023/01/10 08:21:46;;;;;;;0.68;0.68;;;;;;;4.50;80.21;101314.97;5146611;28;20549;-81
2023/01/10 08:24:16;;;;;;;1.95;1.05;;;;;;;4.57;79.90;101310.69;5150290;28;20054;-80
2023/01/10 08:26:48;;;;;;;1.23;1.15;;;;;;;4.53;80.08;101304.59;5149787;28;20047;-81
2023/01/10 08:29:19;;;;;;;0.50;0.50;;;;;;;4.48;80.06;101300.22;5165127;28;20030;-81
2023/01/10 08:31:50;;;;;;;5.18;2.05;;;;;;;4.51;80.06;101311.50;5140923;28;20130;-81
2023/01/10 08:34:20;;;;;;;2.97;1.70;;;;;;;4.54;79.80;101315.84;5150353;28;20700;-81
2023/01/10 08:36:52;;;;;;;0.40;0.40;;;;;;;4.53;80.21;101306.31;5143358;28;20414;-81
2023/01/10 08:39:25;;;;;;;1.10;1.10;;;;;;;4.51;80.09;101306.31;5151908;28;20264;-80
2023/01/10 08:41:56;;;;;;;4.82;2.25;;;;;;;4.53;79.66;101314.09;5148712;28;20079;-81
2023/01/10 08:44:27;;;;;;;0.63;0.63;;;;;;;4.56;80.42;101311.53;5146528;28;20125;-80
2023/01/10 08:46:57;;;;;;;0.57;0.57;;;;;;;4.58;79.95;101317.63;5148439;28;20031;-81
2023/01/10 08:49:28;;;;;;;1.67;1.35;;;;;;;4.59;79.88;101319.34;5164810;28;20038;-81
2023/01/10 08:52:01;;;;;;;0.32;0.32;;;;;;;4.67;79.06;101316.81;5137211;28;20031;-81
2023/01/10 08:54:32;;;;;;;1.33;1.10;;;;;;;4.65;79.80;101328.91;5151029;28;20038;-81
2023/01/10 08:57:02;;;;;;;0.52;0.52;;;;;;;4.75;79.37;101335.06;5162368;28;20042;-81
2023/01/10 08:59:33;;;;;;;0.68;0.68;;;;;;;4.69;79.24;101346.28;5151786;28;20035;-80
2023/01/10 09:02:03;;;;;;;0.30;0.30;;;;;;;4.77;79.18;101338.53;5162235;28;20034;-81
2023/01/10 09:04:34;;;;;;;0.60;0.60;;;;;;;4.80;79.20;101348.97;5147513;28;20027;-81
2023/01/10 09:07:05;;;;;;;0.63;0.63;;;;;;;4.84;79.18;101340.31;5144438;28;20043;-82
2023/01/10 09:09:36;;;;;;;0.30;0.30;;;;;;;4.87;79.09;101342.94;5131257;28;20118;-81
2023/01/10 09:12:53;;;;;;;0.65;0.65;;;;;;;4.85;79.18;101342.06;5159070;28;20106;-82
2023/01/10 09:14:57;;;;;;;1.42;1.33;;;;;;;4.96;79.24;101340.41;5140994;28;20031;-81
2023/01/10 09:17:27;;;;;;;0.38;0.38;;;;;;;5.02;78.64;101345.63;5136147;28;20047;-80
2023/01/10 09:19:58;;;;;;;0.40;0.40;;;;;;;5.03;78.47;101339.56;5163365;28;20035;-80
2023/01/10 09:22:28;;;;;;;0.85;0.85;;;;;;;5.12;78.23;101340.47;5143633;28;20073;-81
2023/01/10 09:24:59;;;;;;;0.30;0.30;;;;;;;5.12;79.04;101340.47;5160491;28;20125;-81
2023/01/10 09:27:29;;;;;;;0.30;0.30;;;;;;;5.09;78.89;101337.84;5124716;28;20490;-81
2023/01/10 09:30:03;;;;;;;0.45;0.45;;;;;;;5.14;78.77;101341.38;5157056;28;20039;-81
2023/01/10 09:32:34;;;;;;;1.40;1.33;;;;;;;5.18;78.86;101340.50;5157125;28;20035;-81
2023/01/10 09:35:04;;;;;;;0.65;0.65;;;;;;;5.20;78.82;101333.59;5139226;28;20093;-81
2023/01/10 09:37:36;;;;;;;2.70;0.68;;;;;;;5.30;78.17;101331.91;5152256;28;20126;-81
2023/01/10 09:40:12;;;;;;;1.65;1.55;;;;;;;5.29;78.42;101333.63;5120984;28;20034;-81
2023/01/10 09:42:54;;;;;;;0.40;0.40;;;;;;;5.33;78.23;101342.31;5141621;28;20035;-82
2023/01/10 09:45:54;;;;;;;0.40;0.40;;;;;;;5.31;78.31;101331.91;5138559;28;20094;-81
2023/01/10 09:48:25;;;;;;;1.35;1.30;;;;;;;5.43;78.00;101331.09;5129332;28;20031;-82
2023/01/10 09:51:13;;;;;;;1.20;1.10;;;;;;;5.45;77.75;101341.50;5126537;28;20284;-82
2023/01/10 09:53:46;;;;;;;0.47;0.47;;;;;;;5.42;78.08;101339.78;5146870;28;20081;-81
2023/01/10 09:56:18;;;;;;;1.20;1.20;;;;;;;5.51;78.18;101349.34;5142844;28;20042;-81
2023/01/10 09:58:48;;;;;;;0.85;0.85;;;;;;;5.59;78.30;101347.63;5159264;28;20042;-80
2023/01/10 10:01:25;;;;;;;0.40;0.40;;;;;;;5.55;78.22;101340.69;5145488;28;20035;-81
2023/01/10 10:04:20;;;;;;;0.30;0.30;;;;;;;5.63;77.75;101343.31;5145297;28;20030;-81
2023/01/10 10:06:52;;;;;;;0.63;0.63;;;;;;;5.63;77.95;101340.69;5140711;28;20047;-81
2023/01/10 10:09:27;;;;;;;0.80;0.80;;;;;;;5.65;78.26;101342.47;5142204;28;20034;-81
2023/01/10 10:12:09;;;;;;;0.30;0.30;;;;;;;5.74;77.72;101343.38;5143738;28;20034;-81
2023/01/10 10:14:58;;;;;;;0.30;0.30;;;;;;;5.72;77.62;101338.13;5136954;28;20217;-80
2023/01/10 10:18:09;;;;;;;0.60;0.60;;;;;;;5.75;77.53;101327.72;5139238;28;20051;-80
2023/01/10 10:20:52;;;;;;;0.65;0.65;;;;;;;5.87;77.61;101328.63;5141965;28;20184;-80
2023/01/10 10:23:57;;;;;;;0.40;0.40;;;;;;;5.83;76.96;101330.34;5144078;28;20037;-80
2023/01/10 10:26:48;;;;;;;0.98;0.60;;;;;;;5.93;77.16;101320.84;5152627;28;20174;-81
2023/01/10 10:29:39;;;;;;;0.55;0.55;;;;;;;5.95;76.67;101327.78;5141942;28;20038;-81
2023/01/10 10:32:13;;;;;;;1.67;1.58;;;;;;;5.99;76.14;101324.31;5121602;28;20069;-80
2023/01/10 10:34:56;;;;;;;0.30;0.30;;;;;;;6.03;75.89;101326.94;5161079;28;20450;-81
2023/01/10 10:37:32;;;;;;;2.33;2.03;;;;;;;6.10;75.51;101328.69;5156267;28;20050;-81
2023/01/10 10:40:24;;;;;;;2.45;1.60;;;;;;;6.12;76.47;101326.97;5161342;28;20722;-82
2023/01/10 10:42:58;;;;;;;0.30;0.30;;;;;;;6.13;75.67;101326.94;5144665;28;20625;-82
2023/01/10 10:45:40;;;;;;;0.75;0.75;;;;;;;6.20;75.43;101325.22;5133865;28;20071;-81
2023/01/10 10:48:33;;;;;;;1.17;1.15;;;;;;;6.21;76.03;101316.56;5137617;28;20042;-81
2023/01/10 10:51:12;;;;;;;22.73;1.38;;;;;;;6.22;75.79;101310.47;5127541;28;20043;-81
2023/01/10 10:53:45;;;;;;;0.68;0.68;;;;;;;6.27;75.46;101300.91;5142777;28;20030;-80
2023/01/10 10:56:20;;;;;;;2.83;2.05;;;;;;;6.29;74.88;101291.34;5126118;28;20041;-80
2023/01/10 10:58:54;;;;;;;1.45;1.35;;;;;;;6.37;75.05;101295.69;5142664;28;20019;-81
2023/01/10 11:01:25;;;;;;;1.17;0.80;;;;;;;6.37;74.71;101282.66;5140841;28;20445;-81
2023/01/10 11:04:05;;;;;;;1.75;0.95;;;;;;;6.40;74.74;101280.06;5122696;28;20163;-80
2023/01/10 11:06:37;;;;;;;3.03;2.20;;;;;;;6.46;73.83;101278.31;5143350;28;20102;-81
2023/01/10 11:09:08;;;;;;;0.30;0.30;;;;;;;6.48;73.92;101283.53;5161400;28;20247;-81
2023/01/10 11:11:49;;;;;;;2.35;1.05;;;;;;;6.50;74.16;101281.78;5152049;28;20046;-81
2023/01/10 11:15:00;;;;;;;0.50;0.50;;;;;;;6.53;74.37;101276.56;5152056;28;20686;-80
2023/01/10 11:17:33;;;;;;;0.30;0.30;;;;;;;6.59;74.35;101273.09;5067971;29;20056;-81
2023/01/10 11:20:12;;;;;;;0.30;0.30;;;;;;;6.64;74.18;101273.09;5073016;29;20027;-81
2023/01/10 11:22:49;;;;;;;0.30;0.30;;;;;;;6.63;73.78;101276.56;5124349;28;20047;-81
2023/01/10 11:25:21;;;;;;;0.60;0.60;;;;;;;6.72;74.03;101274.78;5142040;28;20039;-81
2023/01/10 11:27:55;;;;;;;0.25;0.25;;;;;;;6.74;73.86;101274.78;5143420;28;20405;-81
2023/01/10 11:30:33;;;;;;;0.75;0.75;;;;;;;6.83;73.47;101268.69;5152087;28;20844;-82
2023/01/10 11:33:07;;;;;;;4.97;1.60;;;;;;;6.82;73.24;101266.94;5146356;28;20031;-81
2023/01/10 11:35:40;;;;;;;0.70;0.70;;;;;;;6.86;73.44;101268.69;5126899;28;20453;-81
2023/01/10 11:38:21;;;;;;;2.97;2.28;;;;;;;6.85;72.41;101261.72;5159298;28;20738;-81
2023/01/10 11:40:57;;;;;;;1.65;0.82;;;;;;;6.87;72.30;101259.97;5143405;28;20043;-81
2023/01/10 11:43:39;;;;;;;0.30;0.30;;;;;;;6.91;72.66;101261.69;5162118;28;20041;-81
2023/01/10 11:46:15;;;;;;;1.38;1.27;;;;;;;6.98;72.11;101262.56;5128481;28;20066;-81
2023/01/10 11:49:01;;;;;;;0.30;0.30;;;;;;;7.02;70.64;101265.16;5140740;28;20029;-82
2023/01/10 11:51:43;;;;;;;1.75;1.10;;;;;;;7.04;71.45;101254.72;5135232;28;20042;-80
2023/01/10 11:54:23;;;;;;;0.75;0.75;;;;;;;7.11;69.97;101255.56;5152803;28;20089;-80
2023/01/10 11:56:57;;;;;;;0.50;0.50;;;;;;;7.12;69.76;101250.31;5128503;28;20082;-80
2023/01/10 11:59:28;;;;;;;0.40;0.40;;;;;;;7.15;70.48;101242.47;5119969;28;20046;-80
2023/01/10 12:02:30;;;;;;;3.53;0.60;;;;;;;7.17;70.51;101243.31;5135709;28;20520;-80
2023/01/10 12:05:05;;;;;;;0.57;0.57;;;;;;;7.19;70.05;101238.97;5125606;28;20050;-80
2023/01/10 12:07:58;;;;;;;5.45;0.85;;;;;;;7.22;70.91;101236.38;5122568;28;20054;-80
2023/01/10 12:10:29;;;;;;;1.10;1.03;;;;;;;7.27;70.72;101230.25;5153308;28;20042;-80
2023/01/10 12:13:14;;;;;;;0.50;0.50;;;;;;;7.30;69.50;101238.06;5156095;28;20126;-80
2023/01/10 12:15:45;;;;;;;0.52;0.52;;;;;;;7.37;69.64;101221.50;5140254;28;20074;-80
2023/01/10 12:18:18;;;;;;;0.82;0.82;;;;;;;7.42;70.31;101222.31;5157685;28;20038;-80